Aviation Digital Data Service (ADDS)

Output produced by METARs form (1312 UTC 23 January 2019)
found at http://www.aviationweather.gov/metar/data/
 
Forecast for: YBTL (TOWNSVILLE(CIV/M, AU)
Text: TAF YBTL 231126Z 2312/2412 VRB07KT 9999 -SHRA SCT022 SCT040
Forecast period: 1200 UTC 23 January 2019 to 0200 UTC 24 January 2019
Forecast type: FROM: standard forecast or significant change
Winds: variable direction winds at 8 MPH (7 knots; 3.6 m/s)
Visibility: 6 or more miles 10+ km)
Ceiling: at least 12,000 feet AGL
Clouds: scattered clouds at 2200 feet AGL
scattered clouds at 4000 feet AGL
Weather: -SHRA  (light rain showers)
Text: FM240200 07015KT 9999 -SHRA FEW030 BKN060
Forecast period: 0200 to 1000 UTC 24 January 2019
Forecast type: FROM: standard forecast or significant change
Winds: from the ENE (70 degrees) at 17 MPH (15 knots; 7.7 m/s)
Visibility: 6 or more miles 10+ km)
Ceiling: 6000 feet AGL
Clouds: few clouds at 3000 feet AGL
broken clouds at 6000 feet AGL
Weather: -SHRA  (light rain showers)
Text: FM241000 VRB07KT 9999 -SHRA SCT022 SCT040
Forecast period: 1000 to 1200 UTC 24 January 2019
Forecast type: FROM: standard forecast or significant change
Winds: variable direction winds at 8 MPH (7 knots; 3.6 m/s)
Visibility: 6 or more miles 10+ km)
Ceiling: at least 12,000 feet AGL
Clouds: scattered clouds at 2200 feet AGL
scattered clouds at 4000 feet AGL
Weather: -SHRA  (light rain showers)